createdAt,value
2019-04-14T00:02:01.017Z,101586.16
2019-04-14T00:04:35.524Z,101582.24
2019-04-14T00:07:05.882Z,101588.71
2019-04-14T00:09:35.804Z,101583.13
2019-04-14T00:12:07.982Z,101591.30
2019-04-14T00:14:38.226Z,101585.70
2019-04-14T00:17:08.752Z,101590.44
2019-04-14T00:19:39.137Z,101591.30
2019-04-14T00:22:09.422Z,101586.58
2019-04-14T00:24:40.054Z,101578.84
2019-04-14T00:27:10.647Z,101578.01
2019-04-14T00:29:41.406Z,101571.98
2019-04-14T00:32:11.710Z,101572.84
2019-04-14T00:34:42.023Z,101568.55
2019-04-14T00:37:25.240Z,101575.00
2019-04-14T00:39:57.522Z,101572.41
2019-04-14T00:42:29.855Z,101571.13
2019-04-14T00:45:01.039Z,101565.56
2019-04-14T00:47:33.138Z,101571.98
2019-04-14T00:50:03.661Z,101567.72
2019-04-14T00:52:34.048Z,101564.70
2019-04-14T00:55:05.350Z,101558.68
2019-04-14T00:57:35.602Z,101565.97
2019-04-14T01:00:08.252Z,101562.54
2019-04-14T01:02:38.539Z,101560.40
2019-04-14T01:05:08.965Z,101550.50
2019-04-14T01:07:39.169Z,101561.25
2019-04-14T01:10:10.304Z,101558.23
2019-04-14T01:12:40.933Z,101558.67
2019-04-14T01:15:11.601Z,101555.22
2019-04-14T01:17:41.785Z,101559.53
2019-04-14T01:20:12.501Z,101556.97
2019-04-14T01:22:42.443Z,101558.23
2019-04-14T01:25:12.852Z,101558.24
2019-04-14T01:27:42.896Z,101561.69
2019-04-14T01:30:13.339Z,101557.80
2019-04-14T01:32:43.663Z,101567.27
2019-04-14T01:35:13.863Z,101566.41
2019-04-14T01:37:44.109Z,101575.00
2019-04-14T01:40:14.199Z,101567.72
2019-04-14T01:42:44.231Z,101571.12
2019-04-14T01:45:16.471Z,101568.55
2019-04-14T01:47:46.761Z,101575.45
2019-04-14T01:50:19.131Z,101572.87
2019-04-14T01:53:09.608Z,101571.14
2019-04-14T01:55:52.811Z,101565.97
2019-04-14T01:58:25.074Z,101566.84
2019-04-14T02:01:10.445Z,101569.84
2019-04-14T02:03:40.982Z,101567.70
2019-04-14T02:06:11.462Z,101574.15
2019-04-14T02:08:41.524Z,101576.73
2019-04-14T02:11:11.647Z,101575.02
2019-04-14T02:13:42.098Z,101570.70
2019-04-14T02:16:22.992Z,101570.70
2019-04-14T02:18:43.240Z,101569.86
2019-04-14T02:21:12.947Z,101574.59
2019-04-14T02:23:43.351Z,101577.61
2019-04-14T02:26:13.280Z,101577.16
2019-04-14T02:28:43.869Z,101573.30
2019-04-14T02:31:34.461Z,101579.32
2019-04-14T02:34:15.716Z,101578.02
2019-04-14T02:39:22.293Z,101580.59
2019-04-14T02:41:57.037Z,101585.34
2019-04-14T02:49:20.418Z,101580.19
2019-04-14T02:51:49.779Z,101584.47
2019-04-14T02:54:29.075Z,101585.77
2019-04-14T02:56:52.516Z,101586.19
2019-04-14T02:59:22.953Z,101587.91
2019-04-14T03:02:09.716Z,101590.50
2019-04-14T03:04:25.488Z,101593.48
2019-04-14T03:06:54.781Z,101595.21
2019-04-14T03:09:36.358Z,101597.81
2019-04-14T03:12:00.855Z,101593.52
2019-04-14T03:19:44.006Z,101587.48
2019-04-14T03:24:42.188Z,101590.05
2019-04-14T03:27:33.040Z,101586.63
2019-04-14T03:30:26.201Z,101585.33
2019-04-14T03:32:52.990Z,101593.49
2019-04-14T03:35:30.201Z,101592.66
2019-04-14T03:37:48.575Z,101587.92
2019-04-14T03:40:10.124Z,101588.36
2019-04-14T03:45:20.653Z,101578.44
2019-04-14T03:47:42.042Z,101581.47
2019-04-14T03:50:16.486Z,101587.05
2019-04-14T03:52:53.360Z,101587.46
2019-04-14T03:55:09.712Z,101593.48
2019-04-14T03:57:22.006Z,101588.77
2019-04-14T03:59:52.124Z,101596.50
2019-04-14T04:02:22.631Z,101590.89
2019-04-14T04:04:53.327Z,101588.31
2019-04-14T04:07:23.549Z,101590.05
2019-04-14T04:09:58.351Z,101592.63
2019-04-14T04:12:29.171Z,101591.33
2019-04-14T04:14:59.692Z,101595.64
2019-04-14T04:17:42.995Z,101599.52
2019-04-14T04:20:15.161Z,101595.63
2019-04-14T04:23:05.186Z,101600.78
2019-04-14T04:25:37.522Z,101604.23
2019-04-14T04:28:25.640Z,101606.80
2019-04-14T04:31:02.738Z,101609.37
2019-04-14T04:33:50.154Z,101611.09
2019-04-14T04:36:22.506Z,101607.20
2019-04-14T04:38:57.452Z,101611.94
2019-04-14T04:41:27.532Z,101607.22
2019-04-14T04:43:58.186Z,101604.64
2019-04-14T04:46:28.775Z,101605.50
2019-04-14T04:49:09.098Z,101611.07
2019-04-14T04:51:31.071Z,101614.95
2019-04-14T04:54:01.705Z,101610.65
2019-04-14T04:56:31.852Z,101613.23
2019-04-14T04:59:01.499Z,101621.39
2019-04-14T05:01:31.785Z,101615.39
2019-04-14T05:04:02.414Z,101612.37
2019-04-14T05:07:01.756Z,101613.65
2019-04-14T05:09:34.615Z,101619.27
2019-04-14T05:12:21.728Z,101622.67
2019-04-14T05:14:52.250Z,101616.66
2019-04-14T05:17:26.068Z,101626.11
2019-04-14T05:19:56.250Z,101629.55
2019-04-14T05:22:26.754Z,101634.71
2019-04-14T05:24:57.198Z,101633.00
2019-04-14T05:27:27.640Z,101636.42
2019-04-14T05:29:58.017Z,101649.31
2019-04-14T05:32:28.383Z,101651.47
2019-04-14T05:34:58.675Z,101651.48
2019-04-14T05:37:29.017Z,101655.35
2019-04-14T05:39:59.365Z,101643.31
2019-04-14T05:42:30.105Z,101664.38
2019-04-14T05:45:00.072Z,101666.09
2019-04-14T05:47:30.554Z,101674.25
2019-04-14T05:50:00.903Z,101675.95
2019-04-14T05:52:31.767Z,101673.39
2019-04-14T05:55:04.467Z,101681.55
2019-04-14T05:57:35.186Z,101674.67
2019-04-14T06:00:10.833Z,101675.10
2019-04-14T06:02:40.401Z,101674.67
2019-04-14T06:05:11.395Z,101671.64
2019-04-14T06:07:41.243Z,101675.06
2019-04-14T06:10:11.238Z,101680.65
2019-04-14T06:12:40.778Z,101680.68
2019-04-14T06:15:11.158Z,101686.69
2019-04-14T06:17:41.066Z,101683.68
2019-04-14T06:20:11.358Z,101681.94
2019-04-14T06:22:40.950Z,101678.92
2019-04-14T06:25:10.949Z,101689.26
2019-04-14T06:27:40.502Z,101690.12
2019-04-14T06:30:15.073Z,101693.16
2019-04-14T06:32:46.593Z,101688.38
2019-04-14T06:35:20.659Z,101700.45
2019-04-14T06:37:51.884Z,101687.54
2019-04-14T06:40:23.096Z,101697.02
2019-04-14T06:42:52.635Z,101690.15
2019-04-14T06:45:22.201Z,101690.58
2019-04-14T06:47:51.797Z,101688.42
2019-04-14T06:50:21.330Z,101680.68
2019-04-14T06:52:50.927Z,101683.23
2019-04-14T06:55:20.619Z,101691.85
2019-04-14T06:57:50.187Z,101689.28
2019-04-14T07:00:19.726Z,101699.59
2019-04-14T07:02:49.284Z,101696.19
2019-04-14T07:05:19.072Z,101703.52
2019-04-14T07:07:56.949Z,101697.94
2019-04-14T07:10:23.324Z,101700.97
2019-04-14T07:12:52.920Z,101699.70
2019-04-14T07:15:22.684Z,101709.17
2019-04-14T07:17:52.285Z,101715.63
2019-04-14T07:20:21.805Z,101713.48
2019-04-14T07:22:51.414Z,101707.91
2019-04-14T07:25:27.206Z,101707.48
2019-04-14T07:28:02.848Z,101698.03
2019-04-14T07:30:50.333Z,101715.67
2019-04-14T07:33:27.906Z,101710.52
2019-04-14T07:36:17.182Z,101706.66
2019-04-14T07:38:48.417Z,101699.79
2019-04-14T07:41:25.141Z,101715.27
2019-04-14T07:43:56.347Z,101719.55
2019-04-14T07:46:42.358Z,101713.45
2019-04-14T07:49:32.871Z,101715.97
2019-04-14T07:52:14.569Z,101712.06
2019-04-14T07:55:01.997Z,101710.28
2019-04-14T07:57:39.131Z,101711.87
2019-04-14T08:00:10.673Z,101716.56
2019-04-14T08:02:47.360Z,101716.58
2019-04-14T08:05:24.519Z,101710.17
2019-04-14T08:07:54.048Z,101716.71
2019-04-14T08:10:23.711Z,101713.70
2019-04-14T08:12:53.315Z,101716.70
2019-04-14T08:15:22.864Z,101713.62
2019-04-14T08:17:52.400Z,101714.76
2019-04-14T08:20:27.693Z,101708.56
2019-04-14T08:22:53.649Z,101709.36
2019-04-14T08:25:23.315Z,101714.50
2019-04-14T08:27:52.879Z,101717.08
2019-04-14T08:30:22.719Z,101708.39
2019-04-14T08:32:52.255Z,101709.11
2019-04-14T08:35:21.803Z,101710.89
2019-04-14T08:37:51.344Z,101706.50
2019-04-14T08:40:23.794Z,101701.28
2019-04-14T08:43:03.794Z,101708.50
2019-04-14T08:45:51.055Z,101709.69
2019-04-14T08:48:38.361Z,101703.92
2019-04-14T08:51:07.934Z,101707.36
2019-04-14T08:53:44.946Z,101711.04
2019-04-14T08:56:31.522Z,101710.31
2019-04-14T08:59:19.066Z,101709.42
2019-04-14T09:01:56.415Z,101704.69
2019-04-14T09:04:31.951Z,101700.55
2019-04-14T09:07:10.221Z,101707.47
2019-04-14T09:09:41.457Z,101708.48
2019-04-14T09:12:15.869Z,101703.80
2019-04-14T09:14:56.287Z,101702.84
2019-04-14T09:17:16.140Z,101704.70
2019-04-14T09:19:45.695Z,101701.20
2019-04-14T09:22:15.838Z,101710.83
2019-04-14T09:24:45.406Z,101700.63
2019-04-14T09:27:23.552Z,101702.36
2019-04-14T09:29:54.247Z,101703.03
2019-04-14T09:32:25.494Z,101697.06
2019-04-14T09:34:55.077Z,101698.84
2019-04-14T09:37:25.116Z,101698.16
2019-04-14T09:39:58.259Z,101701.36
2019-04-14T09:42:31.851Z,101700.66
2019-04-14T09:45:01.606Z,101697.20
2019-04-14T09:47:31.226Z,101706.34
2019-04-14T09:50:01.049Z,101706.25
2019-04-14T09:52:30.730Z,101703.54
2019-04-14T09:55:00.391Z,101691.76
2019-04-14T09:57:29.945Z,101700.25
2019-04-14T09:59:59.627Z,101698.84
2019-04-14T10:02:29.191Z,101704.02
2019-04-14T10:04:58.754Z,101699.26
2019-04-14T10:07:28.496Z,101716.64
2019-04-14T10:09:58.140Z,101703.84
2019-04-14T10:12:27.723Z,101709.36
2019-04-14T10:14:57.285Z,101697.32
2019-04-14T10:17:26.874Z,101699.09
2019-04-14T10:19:56.453Z,101700.89
2019-04-14T10:22:33.719Z,101698.92
2019-04-14T10:24:57.389Z,101697.32
2019-04-14T10:27:28.219Z,101699.69
2019-04-14T10:29:57.732Z,101691.25
2019-04-14T10:32:27.404Z,101687.02
2019-04-14T10:34:58.078Z,101682.55
2019-04-14T10:37:27.648Z,101692.98
2019-04-14T10:39:57.444Z,101680.12
2019-04-14T10:42:26.999Z,101692.20
2019-04-14T10:44:56.581Z,101695.77
2019-04-14T10:47:27.078Z,101700.16
2019-04-14T10:49:56.837Z,101695.48
2019-04-14T10:52:26.484Z,101696.39
2019-04-14T10:54:56.108Z,101698.17
2019-04-14T10:57:26.168Z,101697.06
2019-04-14T10:59:56.086Z,101695.84
2019-04-14T11:02:25.636Z,101699.34
2019-04-14T11:04:55.195Z,101697.17
2019-04-14T11:07:29.369Z,101695.76
2019-04-14T11:09:58.887Z,101694.39
2019-04-14T11:12:29.699Z,101698.30
2019-04-14T11:15:04.152Z,101703.77
2019-04-14T11:17:33.951Z,101696.64
2019-04-14T11:20:05.509Z,101699.56
2019-04-14T11:22:35.094Z,101706.12
2019-04-14T11:25:06.264Z,101714.66
2019-04-14T11:27:36.132Z,101706.14
2019-04-14T11:30:09.381Z,101711.62
2019-04-14T11:32:47.548Z,101699.93
2019-04-14T11:35:18.748Z,101696.53
2019-04-14T11:38:06.678Z,101689.44
2019-04-14T11:40:38.858Z,101685.47
2019-04-14T11:43:08.398Z,101683.42
2019-04-14T11:45:38.058Z,101681.69
2019-04-14T11:48:07.603Z,101689.94
2019-04-14T11:50:37.241Z,101683.78
2019-04-14T11:53:06.881Z,101693.53
2019-04-14T11:55:36.516Z,101689.05
2019-04-14T11:58:06.212Z,101687.97
2019-04-14T12:00:53.263Z,101679.34
2019-04-14T12:03:27.048Z,101675.81
2019-04-14T12:06:14.839Z,101692.42
2019-04-14T12:09:04.176Z,101686.84
2019-04-14T12:11:33.786Z,101691.95
2019-04-14T12:14:03.441Z,101686.79
2019-04-14T12:16:33.245Z,101679.47
2019-04-14T12:19:02.951Z,101693.14
2019-04-14T12:21:32.715Z,101693.40
2019-04-14T12:24:02.317Z,101696.84
2019-04-14T12:26:31.843Z,101696.83
2019-04-14T12:29:02.998Z,101690.59
2019-04-14T12:31:33.269Z,101698.82
2019-04-14T12:34:02.815Z,101697.52
2019-04-14T12:36:32.547Z,101692.66
2019-04-14T12:39:02.209Z,101697.64
2019-04-14T12:41:35.902Z,101710.40
2019-04-14T12:44:19.048Z,101698.81
2019-04-14T12:46:50.300Z,101695.63
2019-04-14T12:49:34.087Z,101696.59
2019-04-14T12:52:03.426Z,101701.67
2019-04-14T12:54:33.026Z,101708.69
2019-04-14T12:57:02.972Z,101711.89
2019-04-14T12:59:34.177Z,101699.28
2019-04-14T13:02:23.572Z,101706.09
2019-04-14T13:04:55.331Z,101696.55
2019-04-14T13:07:24.405Z,101702.68
2019-04-14T13:09:54.103Z,101705.88
2019-04-14T13:12:23.945Z,101702.53
2019-04-14T13:14:53.542Z,101706.88
2019-04-14T13:17:23.103Z,101705.52
2019-04-14T13:19:52.668Z,101708.36
2019-04-14T13:22:33.442Z,101703.20
2019-04-14T13:24:53.526Z,101704.50
2019-04-14T13:27:23.377Z,101696.38
2019-04-14T13:29:54.085Z,101694.92
2019-04-14T13:32:35.423Z,101681.22
2019-04-14T13:34:54.967Z,101690.28
2019-04-14T13:37:24.599Z,101685.87
2019-04-14T13:39:54.470Z,101692.68
2019-04-14T13:42:24.058Z,101701.25
2019-04-14T13:44:53.644Z,101691.59
2019-04-14T13:47:23.230Z,101693.83
2019-04-14T13:49:52.852Z,101702.74
2019-04-14T13:52:22.593Z,101697.08
2019-04-14T13:54:52.216Z,101690.63
2019-04-14T13:57:21.809Z,101690.98
2019-04-14T13:59:51.382Z,101688.77
2019-04-14T14:02:20.993Z,101696.56
2019-04-14T14:04:50.701Z,101695.72
2019-04-14T14:07:20.585Z,101700.50
2019-04-14T14:09:50.265Z,101692.23
2019-04-14T14:12:36.559Z,101691.21
2019-04-14T14:15:08.297Z,101689.10
2019-04-14T14:17:48.514Z,101683.22
2019-04-14T14:20:33.023Z,101685.23
2019-04-14T14:23:04.173Z,101685.31
2019-04-14T14:25:39.612Z,101685.31
2019-04-14T14:28:09.284Z,101680.16
2019-04-14T14:30:38.841Z,101679.58
2019-04-14T14:33:08.432Z,101673.26
2019-04-14T14:35:37.992Z,101670.72
2019-04-14T14:38:07.879Z,101670.15
2019-04-14T14:40:37.460Z,101664.06
2019-04-14T14:43:07.198Z,101663.76
2019-04-14T14:45:50.354Z,101660.62
2019-04-14T14:48:24.336Z,101670.28
2019-04-14T14:51:11.217Z,101671.42
2019-04-14T14:53:40.810Z,101664.91
2019-04-14T14:56:10.400Z,101671.44
2019-04-14T14:58:40.140Z,101677.37
2019-04-14T15:01:09.720Z,101667.97
2019-04-14T15:03:39.257Z,101661.63
2019-04-14T15:06:09.021Z,101663.39
2019-04-14T15:08:38.553Z,101671.64
2019-04-14T15:11:08.212Z,101662.09
2019-04-14T15:13:37.930Z,101672.52
2019-04-14T15:16:09.076Z,101674.81
2019-04-14T15:18:42.577Z,101672.39
2019-04-14T15:21:12.815Z,101675.00
2019-04-14T15:23:42.529Z,101680.22
2019-04-14T15:26:12.103Z,101678.37
2019-04-14T15:28:42.540Z,101670.69
2019-04-14T15:31:13.432Z,101670.38
2019-04-14T15:33:43.198Z,101685.34
2019-04-14T15:36:12.833Z,101684.73
2019-04-14T15:38:42.397Z,101677.55
2019-04-14T15:41:12.102Z,101676.84
2019-04-14T15:43:41.754Z,101681.25
2019-04-14T15:46:11.321Z,101677.22
2019-04-14T15:48:40.871Z,101691.37
2019-04-14T15:51:10.476Z,101696.41
2019-04-14T15:53:40.038Z,101702.84
2019-04-14T15:56:11.762Z,101701.80
2019-04-14T15:58:44.767Z,101698.87
2019-04-14T16:01:19.729Z,101693.66
2019-04-14T16:03:52.108Z,101705.71
2019-04-14T16:06:32.651Z,101703.10
2019-04-14T16:09:13.184Z,101704.08
2019-04-14T16:11:48.933Z,101706.88
2019-04-14T16:14:24.110Z,101704.59
2019-04-14T16:17:11.916Z,101699.86
2019-04-14T16:20:01.459Z,101702.47
2019-04-14T16:22:31.777Z,101713.94
2019-04-14T16:25:01.572Z,101708.36
2019-04-14T16:27:32.911Z,101705.44
2019-04-14T16:30:20.720Z,101715.80
2019-04-14T16:33:01.051Z,101713.19
2019-04-14T16:35:38.970Z,101721.39
2019-04-14T16:38:09.486Z,101716.80
2019-04-14T16:40:39.363Z,101727.65
2019-04-14T16:43:09.313Z,101714.84
2019-04-14T16:45:39.194Z,101723.95
2019-04-14T16:48:08.960Z,101735.14
2019-04-14T16:50:38.764Z,101736.98
2019-04-14T16:53:14.360Z,101732.63
2019-04-14T16:55:58.038Z,101726.58
2019-04-14T16:58:29.399Z,101743.05
2019-04-14T17:01:03.880Z,101742.25
2019-04-14T17:03:34.011Z,101752.34
2019-04-14T17:06:04.459Z,101748.64
2019-04-14T17:08:34.217Z,101756.41
2019-04-14T17:11:04.382Z,101753.86
2019-04-14T17:13:35.898Z,101762.92
2019-04-14T17:16:24.118Z,101758.53
2019-04-14T17:19:12.599Z,101769.05
2019-04-14T17:21:44.256Z,101767.45
2019-04-14T17:24:31.069Z,101769.84
2019-04-14T17:27:10.000Z,101774.98
2019-04-14T17:29:44.695Z,101775.97
2019-04-14T17:32:22.417Z,101779.44
2019-04-14T17:35:00.350Z,101779.42
2019-04-14T17:37:50.841Z,101779.49
2019-04-14T17:40:22.598Z,101779.11
2019-04-14T17:42:56.611Z,101790.38
2019-04-14T17:45:33.662Z,101788.65
2019-04-14T17:48:17.766Z,101794.78
2019-04-14T17:51:05.909Z,101798.20
2019-04-14T17:53:40.991Z,101807.34
2019-04-14T17:56:12.757Z,101810.87
2019-04-14T17:58:42.353Z,101813.99
2019-04-14T18:01:17.945Z,101817.45
2019-04-14T18:03:49.671Z,101816.16
2019-04-14T18:06:27.689Z,101824.45
2019-04-14T18:09:15.673Z,101818.85
2019-04-14T18:12:03.586Z,101810.70
2019-04-14T18:14:51.044Z,101818.89
2019-04-14T18:17:31.255Z,101820.37
2019-04-14T18:20:02.666Z,101819.16
2019-04-14T18:22:32.551Z,101821.84
2019-04-14T18:25:02.245Z,101831.77
2019-04-14T18:27:33.753Z,101830.08
2019-04-14T18:30:22.062Z,101827.00
2019-04-14T18:33:09.786Z,101832.28
2019-04-14T18:35:56.498Z,101830.13
2019-04-14T18:38:33.661Z,101834.41
2019-04-14T18:41:23.613Z,101836.11
2019-04-14T18:44:03.972Z,101830.64
2019-04-14T18:46:47.807Z,101836.78
2019-04-14T18:49:25.630Z,101842.02
2019-04-14T18:52:07.113Z,101853.41
2019-04-14T18:54:55.014Z,101851.75
2019-04-14T18:57:35.587Z,101853.98
2019-04-14T19:00:08.460Z,101850.20
2019-04-14T19:02:38.644Z,101860.52
2019-04-14T19:05:08.554Z,101842.83
2019-04-14T19:07:38.661Z,101857.19
2019-04-14T19:10:09.434Z,101851.56
2019-04-14T19:12:43.464Z,101853.30
2019-04-14T19:15:24.289Z,101849.83
2019-04-14T19:17:58.690Z,101852.10
2019-04-14T19:20:28.750Z,101857.40
2019-04-14T19:22:58.685Z,101863.03
2019-04-14T19:25:28.835Z,101863.03
2019-04-14T19:27:58.836Z,101864.30
2019-04-14T19:30:28.837Z,101866.48
2019-04-14T19:32:58.507Z,101862.62
2019-04-14T19:35:28.544Z,101862.23
2019-04-14T19:37:58.552Z,101872.68
2019-04-14T19:40:28.221Z,101880.50
2019-04-14T19:42:58.303Z,101878.89
2019-04-14T19:45:28.087Z,101889.71
2019-04-14T19:47:58.099Z,101894.93
2019-04-14T19:50:28.146Z,101893.61
2019-04-14T19:52:58.279Z,101885.44
2019-04-14T19:55:27.982Z,101896.23
2019-04-14T19:57:57.930Z,101893.17
2019-04-14T20:00:28.548Z,101899.27
2019-04-14T20:02:58.352Z,101892.39
2019-04-14T20:05:28.607Z,101895.39
2019-04-14T20:07:58.557Z,101900.09
2019-04-14T20:10:28.711Z,101896.17
2019-04-14T20:12:58.651Z,101898.83
2019-04-14T20:15:30.266Z,101899.27
2019-04-14T20:18:14.920Z,101904.94
2019-04-14T20:20:55.436Z,101908.00
2019-04-14T20:23:38.946Z,101913.62
2019-04-14T20:26:26.642Z,101922.28
2019-04-14T20:29:00.726Z,101920.14
2019-04-14T20:31:37.439Z,101919.71
2019-04-14T20:34:07.397Z,101930.07
2019-04-14T20:36:37.433Z,101921.01
2019-04-14T20:39:10.746Z,101923.58
2019-04-14T20:41:40.834Z,101931.87
2019-04-14T20:44:10.487Z,101931.00
2019-04-14T20:46:40.186Z,101931.47
2019-04-14T20:49:10.134Z,101941.39
2019-04-14T20:51:40.255Z,101937.55
2019-04-14T20:54:10.042Z,101935.81
2019-04-14T20:56:39.622Z,101938.41
2019-04-14T20:59:09.773Z,101929.33
2019-04-14T21:01:41.413Z,101938.81
2019-04-14T21:04:18.968Z,101942.28
2019-04-14T21:06:57.975Z,101941.49
2019-04-14T21:09:27.763Z,101950.09
2019-04-14T21:11:57.716Z,101940.60
2019-04-14T21:14:30.981Z,101941.03
2019-04-14T21:17:08.506Z,101941.08
2019-04-14T21:19:43.072Z,101942.33
2019-04-14T21:22:30.778Z,101942.77
2019-04-14T21:25:08.457Z,101947.55
2019-04-14T21:27:56.179Z,101957.94
2019-04-14T21:30:45.647Z,101956.65
2019-04-14T21:33:17.058Z,101958.38
2019-04-14T21:35:51.567Z,101957.58
2019-04-14T21:38:41.016Z,101956.28
2019-04-14T21:41:12.477Z,101959.33
2019-04-14T21:43:42.626Z,101968.78
2019-04-14T21:46:12.604Z,101960.97
2019-04-14T21:48:42.787Z,101951.44
2019-04-14T21:51:13.123Z,101950.62
2019-04-14T21:53:43.786Z,101938.07
2019-04-14T21:56:14.995Z,101932.86
2019-04-14T21:58:53.441Z,101936.31
2019-04-14T22:01:50.281Z,101929.03
2019-04-14T22:04:20.872Z,101927.78
2019-04-14T22:06:52.442Z,101931.70
2019-04-14T22:09:29.429Z,101928.72
2019-04-14T22:11:59.755Z,101927.34
2019-04-14T22:14:29.327Z,101933.85
2019-04-14T22:16:58.872Z,101939.11
2019-04-14T22:19:29.471Z,101940.44
2019-04-14T22:21:59.070Z,101945.20
2019-04-14T22:24:28.612Z,101939.53
2019-04-14T22:26:58.197Z,101933.52
2019-04-14T22:29:27.753Z,101930.89
2019-04-14T22:31:57.297Z,101926.20
2019-04-14T22:34:26.951Z,101928.33
2019-04-14T22:36:56.515Z,101923.56
2019-04-14T22:39:26.154Z,101914.96
2019-04-14T22:41:55.694Z,101924.02
2019-04-14T22:44:25.225Z,101919.22
2019-04-14T22:46:54.882Z,101921.03
2019-04-14T22:49:24.448Z,101921.03
2019-04-14T22:51:54.011Z,101923.23
2019-04-14T22:54:23.572Z,101934.04
2019-04-14T22:56:53.131Z,101933.16
2019-04-14T22:59:22.720Z,101936.16
2019-04-14T23:02:00.211Z,101937.45
2019-04-14T23:04:32.985Z,101921.48
2019-04-14T23:07:19.167Z,101933.61
2019-04-14T23:09:50.496Z,101922.77
2019-04-14T23:12:33.761Z,101928.83
2019-04-14T23:15:22.346Z,101927.16
2019-04-14T23:17:59.144Z,101926.75
2019-04-14T23:20:33.600Z,101937.92
2019-04-14T23:23:16.730Z,101934.48
2019-04-14T23:25:46.264Z,101933.23
2019-04-14T23:28:16.854Z,101933.19
2019-04-14T23:30:46.466Z,101929.33
2019-04-14T23:33:16.017Z,101930.97
2019-04-14T23:35:45.595Z,101927.08
2019-04-14T23:38:15.149Z,101924.94
2019-04-14T23:40:44.731Z,101928.35
2019-04-14T23:43:14.362Z,101931.42
2019-04-14T23:45:43.937Z,101937.89
2019-04-14T23:48:13.509Z,101939.20
2019-04-14T23:50:43.069Z,101944.38
2019-04-14T23:53:12.628Z,101936.20
2019-04-14T23:55:42.179Z,101941.39
2019-04-14T23:58:11.758Z,101943.08
